sensor_id;sensor_type;location;lat;lon;timestamp;P1;durP1;ratioP1;P2;durP2;ratioP2
55224;SDS011;41091;49.400;8.684;2022-09-06T00:01:06;6.30;;;1.88;;
55224;SDS011;41091;49.400;8.684;2022-09-06T00:03:36;3.80;;;1.65;;
55224;SDS011;41091;49.400;8.684;2022-09-06T00:06:09;1.25;;;1.25;;
55224;SDS011;41091;49.400;8.684;2022-09-06T00:08:40;3.33;;;1.40;;
55224;SDS011;41091;49.400;8.684;2022-09-06T00:11:07;3.90;;;1.60;;
55224;SDS011;41091;49.400;8.684;2022-09-06T00:13:35;1.40;;;1.27;;
55224;SDS011;41091;49.400;8.684;2022-09-06T00:16:07;2.30;;;1.30;;
55224;SDS011;41091;49.400;8.684;2022-09-06T00:18:40;1.38;;;1.08;;
55224;SDS011;41091;49.400;8.684;2022-09-06T00:23:59;1.20;;;1.10;;
55224;SDS011;41091;49.400;8.684;2022-09-06T00:26:25;3.75;;;1.17;;
55224;SDS011;41091;49.400;8.684;2022-09-06T00:28:50;1.70;;;1.60;;
55224;SDS011;41091;49.400;8.684;2022-09-06T00:31:20;2.13;;;1.95;;
55224;SDS011;41091;49.400;8.684;2022-09-06T00:33:46;2.03;;;1.92;;
55224;SDS011;41091;49.400;8.684;2022-09-06T00:36:14;2.35;;;1.60;;
55224;SDS011;41091;49.400;8.684;2022-09-06T00:38:40;1.42;;;1.33;;
55224;SDS011;41091;49.400;8.684;2022-09-06T00:41:10;1.40;;;1.30;;
55224;SDS011;41091;49.400;8.684;2022-09-06T00:43:40;7.63;;;1.60;;
55224;SDS011;41091;49.400;8.684;2022-09-06T00:46:09;4.78;;;1.25;;
55224;SDS011;41091;49.400;8.684;2022-09-06T00:48:46;1.52;;;1.42;;
55224;SDS011;41091;49.400;8.684;2022-09-06T00:51:14;5.45;;;1.38;;
55224;SDS011;41091;49.400;8.684;2022-09-06T00:53:42;1.95;;;1.10;;
55224;SDS011;41091;49.400;8.684;2022-09-06T00:56:07;3.08;;;1.10;;
55224;SDS011;41091;49.400;8.684;2022-09-06T00:58:35;2.05;;;1.10;;
55224;SDS011;41091;49.400;8.684;2022-09-06T01:01:01;1.85;;;1.10;;
55224;SDS011;41091;49.400;8.684;2022-09-06T01:03:29;1.10;;;1.00;;
55224;SDS011;41091;49.400;8.684;2022-09-06T01:05:59;2.35;;;1.50;;
55224;SDS011;41091;49.400;8.684;2022-09-06T01:08:40;2.75;;;1.52;;
55224;SDS011;41091;49.400;8.684;2022-09-06T01:11:52;3.08;;;1.67;;
55224;SDS011;41091;49.400;8.684;2022-09-06T01:14:28;3.22;;;1.77;;
55224;SDS011;41091;49.400;8.684;2022-09-06T01:28:44;1.77;;;1.67;;
55224;SDS011;41091;49.400;8.684;2022-09-06T01:31:32;1.80;;;1.52;;
55224;SDS011;41091;49.400;8.684;2022-09-06T01:39:28;4.07;;;1.42;;
55224;SDS011;41091;49.400;8.684;2022-09-06T01:41:56;3.90;;;1.20;;
55224;SDS011;41091;49.400;8.684;2022-09-06T01:44:23;2.65;;;1.30;;
55224;SDS011;41091;49.400;8.684;2022-09-06T01:49:48;3.00;;;2.15;;
55224;SDS011;41091;49.400;8.684;2022-09-06T02:10:50;7.32;;;1.73;;
55224;SDS011;41091;49.400;8.684;2022-09-06T02:13:23;1.40;;;1.30;;
55224;SDS011;41091;49.400;8.684;2022-09-06T02:15:51;2.50;;;1.77;;
55224;SDS011;41091;49.400;8.684;2022-09-06T02:18:26;3.92;;;1.95;;
55224;SDS011;41091;49.400;8.684;2022-09-06T02:20:56;2.20;;;1.33;;
55224;SDS011;41091;49.400;8.684;2022-09-06T02:23:25;1.98;;;1.60;;
55224;SDS011;41091;49.400;8.684;2022-09-06T02:26:13;2.03;;;1.80;;
55224;SDS011;41091;49.400;8.684;2022-09-06T02:28:49;2.40;;;1.85;;
55224;SDS011;41091;49.400;8.684;2022-09-06T02:34:20;2.28;;;1.80;;
55224;SDS011;41091;49.400;8.684;2022-09-06T02:36:48;1.90;;;1.58;;
55224;SDS011;41091;49.400;8.684;2022-09-06T02:39:18;5.05;;;2.05;;
55224;SDS011;41091;49.400;8.684;2022-09-06T02:41:44;3.88;;;1.70;;
55224;SDS011;41091;49.400;8.684;2022-09-06T02:44:10;1.70;;;1.60;;
55224;SDS011;41091;49.400;8.684;2022-09-06T02:46:38;6.65;;;1.98;;
55224;SDS011;41091;49.400;8.684;2022-09-06T02:49:03;2.50;;;1.98;;
55224;SDS011;41091;49.400;8.684;2022-09-06T02:51:29;4.90;;;1.70;;
55224;SDS011;41091;49.400;8.684;2022-09-06T02:53:54;3.60;;;2.13;;
55224;SDS011;41091;49.400;8.684;2022-09-06T02:56:20;2.10;;;2.00;;
55224;SDS011;41091;49.400;8.684;2022-09-06T02:58:46;3.38;;;2.00;;
55224;SDS011;41091;49.400;8.684;2022-09-06T03:01:12;6.05;;;1.95;;
55224;SDS011;41091;49.400;8.684;2022-09-06T03:03:37;1.83;;;1.73;;
55224;SDS011;41091;49.400;8.684;2022-09-06T03:06:02;4.30;;;2.10;;
55224;SDS011;41091;49.400;8.684;2022-09-06T03:08:28;3.75;;;1.77;;
55224;SDS011;41091;49.400;8.684;2022-09-06T03:10:57;2.37;;;1.87;;
55224;SDS011;41091;49.400;8.684;2022-09-06T03:13:25;6.88;;;1.83;;
55224;SDS011;41091;49.400;8.684;2022-09-06T03:15:55;2.65;;;1.52;;
55224;SDS011;41091;49.400;8.684;2022-09-06T03:18:26;10.65;;;2.38;;
55224;SDS011;41091;49.400;8.684;2022-09-06T03:20:54;3.97;;;2.42;;
55224;SDS011;41091;49.400;8.684;2022-09-06T03:23:20;3.70;;;2.17;;
55224;SDS011;41091;49.400;8.684;2022-09-06T03:25:47;4.88;;;1.40;;
55224;SDS011;41091;49.400;8.684;2022-09-06T03:28:15;1.75;;;1.42;;
55224;SDS011;41091;49.400;8.684;2022-09-06T03:30:43;2.63;;;1.90;;
55224;SDS011;41091;49.400;8.684;2022-09-06T03:33:09;2.38;;;1.95;;
55224;SDS011;41091;49.400;8.684;2022-09-06T03:35:34;4.80;;;1.60;;
55224;SDS011;41091;49.400;8.684;2022-09-06T03:38:02;3.92;;;2.17;;
55224;SDS011;41091;49.400;8.684;2022-09-06T03:40:30;5.72;;;1.80;;
55224;SDS011;41091;49.400;8.684;2022-09-06T03:42:55;1.85;;;1.58;;
55224;SDS011;41091;49.400;8.684;2022-09-06T03:45:21;2.60;;;2.20;;
55224;SDS011;41091;49.400;8.684;2022-09-06T03:47:46;5.30;;;2.25;;
55224;SDS011;41091;49.400;8.684;2022-09-06T03:50:14;5.90;;;1.98;;
55224;SDS011;41091;49.400;8.684;2022-09-06T03:52:41;1.50;;;1.38;;
55224;SDS011;41091;49.400;8.684;2022-09-06T03:55:07;3.30;;;1.80;;
55224;SDS011;41091;49.400;8.684;2022-09-06T03:57:32;1.60;;;1.50;;
55224;SDS011;41091;49.400;8.684;2022-09-06T03:59:58;3.53;;;1.67;;
55224;SDS011;41091;49.400;8.684;2022-09-06T04:02:23;4.70;;;1.55;;
55224;SDS011;41091;49.400;8.684;2022-09-06T04:04:48;2.22;;;1.98;;
55224;SDS011;41091;49.400;8.684;2022-09-06T04:07:14;2.45;;;1.63;;
55224;SDS011;41091;49.400;8.684;2022-09-06T04:09:39;7.63;;;2.22;;
55224;SDS011;41091;49.400;8.684;2022-09-06T04:12:07;4.03;;;2.05;;
55224;SDS011;41091;49.400;8.684;2022-09-06T04:14:32;2.30;;;2.15;;
55224;SDS011;41091;49.400;8.684;2022-09-06T04:17:00;8.98;;;2.20;;
55224;SDS011;41091;49.400;8.684;2022-09-06T04:19:25;2.25;;;1.77;;
55224;SDS011;41091;49.400;8.684;2022-09-06T04:21:53;4.72;;;2.35;;
55224;SDS011;41091;49.400;8.684;2022-09-06T04:24:18;7.28;;;1.98;;
55224;SDS011;41091;49.400;8.684;2022-09-06T04:26:43;1.40;;;1.40;;
55224;SDS011;41091;49.400;8.684;2022-09-06T04:29:11;9.52;;;1.58;;
55224;SDS011;41091;49.400;8.684;2022-09-06T04:31:36;9.52;;;1.80;;
55224;SDS011;41091;49.400;8.684;2022-09-06T04:34:02;1.90;;;1.38;;
55224;SDS011;41091;49.400;8.684;2022-09-06T04:36:27;5.85;;;1.52;;
55224;SDS011;41091;49.400;8.684;2022-09-06T04:38:56;1.40;;;1.30;;
55224;SDS011;41091;49.400;8.684;2022-09-06T04:41:21;2.05;;;1.83;;
55224;SDS011;41091;49.400;8.684;2022-09-06T04:43:47;1.70;;;1.50;;
55224;SDS011;41091;49.400;8.684;2022-09-06T04:48:49;10.40;;;1.85;;
55224;SDS011;41091;49.400;8.684;2022-09-06T04:51:15;3.08;;;2.75;;
55224;SDS011;41091;49.400;8.684;2022-09-06T04:53:40;4.97;;;1.50;;
55224;SDS011;41091;49.400;8.684;2022-09-06T04:56:10;3.67;;;1.70;;
55224;SDS011;41091;49.400;8.684;2022-09-06T04:58:38;1.88;;;1.58;;
55224;SDS011;41091;49.400;8.684;2022-09-06T05:01:05;2.05;;;1.85;;
55224;SDS011;41091;49.400;8.684;2022-09-06T05:03:31;2.28;;;2.17;;
55224;SDS011;41091;49.400;8.684;2022-09-06T05:09:01;6.85;;;3.65;;
55224;SDS011;41091;49.400;8.684;2022-09-06T05:11:29;12.23;;;4.03;;
55224;SDS011;41091;49.400;8.684;2022-09-06T05:14:01;7.78;;;3.72;;
55224;SDS011;41091;49.400;8.684;2022-09-06T05:16:35;8.45;;;3.13;;
55224;SDS011;41091;49.400;8.684;2022-09-06T05:19:00;7.43;;;3.08;;
55224;SDS011;41091;49.400;8.684;2022-09-06T05:21:26;3.92;;;3.10;;
55224;SDS011;41091;49.400;8.684;2022-09-06T05:23:56;13.68;;;2.50;;
55224;SDS011;41091;49.400;8.684;2022-09-06T05:26:24;3.33;;;3.00;;
55224;SDS011;41091;49.400;8.684;2022-09-06T05:28:50;7.20;;;2.92;;
55224;SDS011;41091;49.400;8.684;2022-09-06T05:31:49;12.30;;;2.85;;
55224;SDS011;41091;49.400;8.684;2022-09-06T05:34:15;4.20;;;2.85;;
55224;SDS011;41091;49.400;8.684;2022-09-06T05:36:43;4.18;;;3.13;;
55224;SDS011;41091;49.400;8.684;2022-09-06T05:39:10;8.45;;;3.25;;
55224;SDS011;41091;49.400;8.684;2022-09-06T05:41:35;11.10;;;6.45;;
55224;SDS011;41091;49.400;8.684;2022-09-06T05:44:04;32.17;;;4.38;;
55224;SDS011;41091;49.400;8.684;2022-09-06T05:46:29;12.73;;;3.70;;
55224;SDS011;41091;49.400;8.684;2022-09-06T05:48:57;11.90;;;3.17;;
55224;SDS011;41091;49.400;8.684;2022-09-06T05:51:34;8.15;;;3.55;;
55224;SDS011;41091;49.400;8.684;2022-09-06T05:54:02;6.43;;;3.92;;
55224;SDS011;41091;49.400;8.684;2022-09-06T05:56:28;3.05;;;2.72;;
55224;SDS011;41091;49.400;8.684;2022-09-06T05:58:56;6.47;;;3.10;;
55224;SDS011;41091;49.400;8.684;2022-09-06T06:01:28;6.30;;;2.70;;
55224;SDS011;41091;49.400;8.684;2022-09-06T06:03:58;3.72;;;2.90;;
55224;SDS011;41091;49.400;8.684;2022-09-06T06:06:28;9.23;;;2.67;;
55224;SDS011;41091;49.400;8.684;2022-09-06T06:08:57;2.70;;;2.60;;
55224;SDS011;41091;49.400;8.684;2022-09-06T06:11:28;10.05;;;5.07;;
55224;SDS011;41091;49.400;8.684;2022-09-06T06:13:57;3.33;;;3.00;;
55224;SDS011;41091;49.400;8.684;2022-09-06T06:16:25;7.95;;;3.88;;
55224;SDS011;41091;49.400;8.684;2022-09-06T06:18:50;2.53;;;2.33;;
55224;SDS011;41091;49.400;8.684;2022-09-06T06:24:02;6.10;;;3.20;;
55224;SDS011;41091;49.400;8.684;2022-09-06T06:26:32;4.28;;;3.17;;
55224;SDS011;41091;49.400;8.684;2022-09-06T06:29:00;3.70;;;3.03;;
55224;SDS011;41091;49.400;8.684;2022-09-06T06:31:32;6.00;;;3.08;;
55224;SDS011;41091;49.400;8.684;2022-09-06T06:33:57;6.13;;;3.55;;
55224;SDS011;41091;49.400;8.684;2022-09-06T06:36:24;4.22;;;3.80;;
55224;SDS011;41091;49.400;8.684;2022-09-06T06:38:56;9.65;;;3.60;;
55224;SDS011;41091;49.400;8.684;2022-09-06T06:41:30;3.70;;;3.03;;
55224;SDS011;41091;49.400;8.684;2022-09-06T06:44:02;4.47;;;3.22;;
55224;SDS011;41091;49.400;8.684;2022-09-06T06:46:33;12.05;;;2.95;;
55224;SDS011;41091;49.400;8.684;2022-09-06T06:49:02;7.32;;;2.92;;
55224;SDS011;41091;49.400;8.684;2022-09-06T06:51:29;4.25;;;2.78;;
55224;SDS011;41091;49.400;8.684;2022-09-06T06:53:58;5.15;;;2.75;;
55224;SDS011;41091;49.400;8.684;2022-09-06T06:56:25;6.93;;;2.78;;
55224;SDS011;41091;49.400;8.684;2022-09-06T06:58:56;10.15;;;2.60;;
55224;SDS011;41091;49.400;8.684;2022-09-06T07:01:24;7.15;;;2.65;;
55224;SDS011;41091;49.400;8.684;2022-09-06T07:03:50;6.65;;;2.20;;
55224;SDS011;41091;49.400;8.684;2022-09-06T07:06:16;6.00;;;2.70;;
55224;SDS011;41091;49.400;8.684;2022-09-06T07:08:44;2.42;;;2.28;;
55224;SDS011;41091;49.400;8.684;2022-09-06T07:11:13;10.05;;;2.40;;
55224;SDS011;41091;49.400;8.684;2022-09-06T07:13:42;4.40;;;2.78;;
55224;SDS011;41091;49.400;8.684;2022-09-06T07:18:40;5.30;;;2.40;;
55224;SDS011;41091;49.400;8.684;2022-09-06T07:21:16;2.33;;;2.10;;
55224;SDS011;41091;49.400;8.684;2022-09-06T07:23:43;3.13;;;2.38;;
55224;SDS011;41091;49.400;8.684;2022-09-06T07:26:12;4.65;;;2.30;;
55224;SDS011;41091;49.400;8.684;2022-09-06T07:28:42;6.15;;;2.63;;
55224;SDS011;41091;49.400;8.684;2022-09-06T07:31:13;8.90;;;2.33;;
55224;SDS011;41091;49.400;8.684;2022-09-06T07:33:38;3.38;;;1.92;;
55224;SDS011;41091;49.400;8.684;2022-09-06T07:36:05;8.73;;;2.28;;
55224;SDS011;41091;49.400;8.684;2022-09-06T07:38:35;5.65;;;2.17;;
55224;SDS011;41091;49.400;8.684;2022-09-06T07:41:01;3.35;;;1.88;;
55224;SDS011;41091;49.400;8.684;2022-09-06T07:43:31;3.95;;;2.22;;
55224;SDS011;41091;49.400;8.684;2022-09-06T07:46:07;3.95;;;1.85;;
55224;SDS011;41091;49.400;8.684;2022-09-06T07:48:35;3.13;;;2.08;;
55224;SDS011;41091;49.400;8.684;2022-09-06T07:51:02;2.35;;;1.75;;
55224;SDS011;41091;49.400;8.684;2022-09-06T07:53:31;5.03;;;1.98;;
55224;SDS011;41091;49.400;8.684;2022-09-06T07:56:00;4.40;;;1.67;;
55224;SDS011;41091;49.400;8.684;2022-09-06T07:58:27;3.15;;;2.10;;
55224;SDS011;41091;49.400;8.684;2022-09-06T08:00:53;2.75;;;2.10;;
55224;SDS011;41091;49.400;8.684;2022-09-06T08:03:21;4.28;;;2.92;;
55224;SDS011;41091;49.400;8.684;2022-09-06T08:05:52;2.70;;;1.95;;
55224;SDS011;41091;49.400;8.684;2022-09-06T08:08:17;1.85;;;1.70;;
55224;SDS011;41091;49.400;8.684;2022-09-06T08:10:48;6.78;;;1.80;;
55224;SDS011;41091;49.400;8.684;2022-09-06T08:13:14;3.80;;;1.88;;
55224;SDS011;41091;49.400;8.684;2022-09-06T08:15:39;2.42;;;1.80;;
55224;SDS011;41091;49.400;8.684;2022-09-06T08:18:05;3.10;;;2.45;;
55224;SDS011;41091;49.400;8.684;2022-09-06T08:20:32;3.03;;;2.30;;
55224;SDS011;41091;49.400;8.684;2022-09-06T08:22:58;10.95;;;1.58;;
55224;SDS011;41091;49.400;8.684;2022-09-06T08:25:23;2.55;;;2.30;;
55224;SDS011;41091;49.400;8.684;2022-09-06T08:27:49;4.28;;;1.90;;
55224;SDS011;41091;49.400;8.684;2022-09-06T08:30:15;4.93;;;2.03;;
55224;SDS011;41091;49.400;8.684;2022-09-06T08:32:40;1.48;;;1.38;;
55224;SDS011;41091;49.400;8.684;2022-09-06T08:35:08;5.30;;;1.75;;
55224;SDS011;41091;49.400;8.684;2022-09-06T08:37:34;1.83;;;1.73;;
55224;SDS011;41091;49.400;8.684;2022-09-06T08:39:59;4.63;;;2.13;;
55224;SDS011;41091;49.400;8.684;2022-09-06T08:42:24;2.25;;;1.88;;
55224;SDS011;41091;49.400;8.684;2022-09-06T08:44:50;4.13;;;1.60;;
55224;SDS011;41091;49.400;8.684;2022-09-06T08:47:17;4.45;;;1.67;;
55224;SDS011;41091;49.400;8.684;2022-09-06T08:49:45;4.70;;;1.40;;
55224;SDS011;41091;49.400;8.684;2022-09-06T08:52:39;4.88;;;1.85;;
55224;SDS011;41091;49.400;8.684;2022-09-06T08:55:11;7.80;;;2.15;;
55224;SDS011;41091;49.400;8.684;2022-09-06T08:58:01;1.35;;;1.25;;
55224;SDS011;41091;49.400;8.684;2022-09-06T09:00:34;2.95;;;1.55;;
55224;SDS011;41091;49.400;8.684;2022-09-06T09:05:30;1.50;;;1.40;;
55224;SDS011;41091;49.400;8.684;2022-09-06T09:07:59;2.42;;;1.50;;
55224;SDS011;41091;49.400;8.684;2022-09-06T09:10:29;5.80;;;1.88;;
55224;SDS011;41091;49.400;8.684;2022-09-06T09:12:59;3.05;;;1.77;;
55224;SDS011;41091;49.400;8.684;2022-09-06T09:15:24;3.80;;;1.67;;
55224;SDS011;41091;49.400;8.684;2022-09-06T09:17:50;3.20;;;1.85;;
55224;SDS011;41091;49.400;8.684;2022-09-06T09:20:16;8.07;;;1.50;;
55224;SDS011;41091;49.400;8.684;2022-09-06T09:22:42;2.40;;;1.60;;
55224;SDS011;41091;49.400;8.684;2022-09-06T09:25:10;4.07;;;1.55;;
55224;SDS011;41091;49.400;8.684;2022-09-06T09:27:40;2.05;;;1.45;;
55224;SDS011;41091;49.400;8.684;2022-09-06T09:30:06;5.45;;;2.10;;
55224;SDS011;41091;49.400;8.684;2022-09-06T09:37:45;2.45;;;1.60;;
55224;SDS011;41091;49.400;8.684;2022-09-06T09:40:16;1.70;;;1.60;;
55224;SDS011;41091;49.400;8.684;2022-09-06T09:42:47;1.58;;;1.48;;
55224;SDS011;41091;49.400;8.684;2022-09-06T09:47:47;4.28;;;1.92;;
55224;SDS011;41091;49.400;8.684;2022-09-06T09:53:08;1.73;;;1.63;;
55224;SDS011;41091;49.400;8.684;2022-09-06T09:55:35;4.68;;;1.67;;
55224;SDS011;41091;49.400;8.684;2022-09-06T09:58:04;2.30;;;1.52;;
55224;SDS011;41091;49.400;8.684;2022-09-06T10:00:32;3.13;;;1.70;;
55224;SDS011;41091;49.400;8.684;2022-09-06T10:03:10;4.40;;;1.85;;
55224;SDS011;41091;49.400;8.684;2022-09-06T10:05:37;1.80;;;1.70;;
55224;SDS011;41091;49.400;8.684;2022-09-06T10:08:08;6.90;;;2.03;;
55224;SDS011;41091;49.400;8.684;2022-09-06T10:10:38;5.80;;;2.08;;
55224;SDS011;41091;49.400;8.684;2022-09-06T10:15:38;11.98;;;1.83;;
55224;SDS011;41091;49.400;8.684;2022-09-06T10:18:04;3.97;;;2.05;;
55224;SDS011;41091;49.400;8.684;2022-09-06T10:20:38;6.43;;;3.30;;
55224;SDS011;41091;49.400;8.684;2022-09-06T10:23:09;2.55;;;1.95;;
55224;SDS011;41091;49.400;8.684;2022-09-06T10:25:43;5.05;;;2.85;;
55224;SDS011;41091;49.400;8.684;2022-09-06T10:30:35;3.92;;;1.73;;
55224;SDS011;41091;49.400;8.684;2022-09-06T10:35:47;8.20;;;2.38;;
55224;SDS011;41091;49.400;8.684;2022-09-06T10:43:26;5.90;;;2.13;;
55224;SDS011;41091;49.400;8.684;2022-09-06T10:45:58;7.90;;;1.75;;
55224;SDS011;41091;49.400;8.684;2022-09-06T10:48:30;1.75;;;1.60;;
55224;SDS011;41091;49.400;8.684;2022-09-06T10:51:49;15.93;;;2.08;;
55224;SDS011;41091;49.400;8.684;2022-09-06T11:02:17;4.47;;;2.00;;
55224;SDS011;41091;49.400;8.684;2022-09-06T11:04:55;5.88;;;2.45;;
55224;SDS011;41091;49.400;8.684;2022-09-06T11:07:28;2.20;;;1.50;;
55224;SDS011;41091;49.400;8.684;2022-09-06T11:10:15;3.83;;;1.45;;
55224;SDS011;41091;49.400;8.684;2022-09-06T11:12:51;3.30;;;1.77;;
55224;SDS011;41091;49.400;8.684;2022-09-06T11:15:21;4.45;;;2.63;;
55224;SDS011;41091;49.400;8.684;2022-09-06T11:23:01;10.93;;;2.15;;
55224;SDS011;41091;49.400;8.684;2022-09-06T11:28:45;6.82;;;1.90;;
55224;SDS011;41091;49.400;8.684;2022-09-06T11:31:16;2.35;;;1.52;;
55224;SDS011;41091;49.400;8.684;2022-09-06T11:33:46;15.75;;;1.67;;
55224;SDS011;41091;49.400;8.684;2022-09-06T11:38:59;5.05;;;2.20;;
55224;SDS011;41091;49.400;8.684;2022-09-06T11:41:26;7.95;;;1.67;;
55224;SDS011;41091;49.400;8.684;2022-09-06T11:43:54;4.28;;;1.77;;
55224;SDS011;41091;49.400;8.684;2022-09-06T11:51:38;6.35;;;1.67;;
55224;SDS011;41091;49.400;8.684;2022-09-06T12:01:40;2.55;;;1.38;;
55224;SDS011;41091;49.400;8.684;2022-09-06T12:04:08;9.13;;;1.17;;
55224;SDS011;41091;49.400;8.684;2022-09-06T12:06:35;6.07;;;1.30;;
55224;SDS011;41091;49.400;8.684;2022-09-06T12:11:52;2.50;;;1.35;;
55224;SDS011;41091;49.400;8.684;2022-09-06T12:14:36;3.15;;;1.15;;
55224;SDS011;41091;49.400;8.684;2022-09-06T12:24:55;7.50;;;1.17;;
55224;SDS011;41091;49.400;8.684;2022-09-06T12:27:22;3.10;;;0.93;;
55224;SDS011;41091;49.400;8.684;2022-09-06T12:32:33;2.08;;;1.42;;
55224;SDS011;41091;49.400;8.684;2022-09-06T12:35:01;7.88;;;1.42;;
55224;SDS011;41091;49.400;8.684;2022-09-06T12:37:32;5.75;;;1.02;;
55224;SDS011;41091;49.400;8.684;2022-09-06T12:40:02;3.13;;;0.98;;
55224;SDS011;41091;49.400;8.684;2022-09-06T12:42:30;1.52;;;0.82;;
55224;SDS011;41091;49.400;8.684;2022-09-06T12:44:56;2.88;;;1.05;;
55224;SDS011;41091;49.400;8.684;2022-09-06T12:47:27;7.13;;;1.38;;
55224;SDS011;41091;49.400;8.684;2022-09-06T12:58:01;5.15;;;1.05;;
55224;SDS011;41091;49.400;8.684;2022-09-06T13:00:41;4.05;;;0.80;;
55224;SDS011;41091;49.400;8.684;2022-09-06T13:06:02;3.70;;;1.00;;
55224;SDS011;41091;49.400;8.684;2022-09-06T13:08:33;8.35;;;1.27;;
55224;SDS011;41091;49.400;8.684;2022-09-06T13:11:02;1.25;;;0.88;;
55224;SDS011;41091;49.400;8.684;2022-09-06T13:13:29;3.08;;;1.10;;
55224;SDS011;41091;49.400;8.684;2022-09-06T13:15:54;7.93;;;1.00;;
55224;SDS011;41091;49.400;8.684;2022-09-06T13:18:33;5.03;;;1.02;;
55224;SDS011;41091;49.400;8.684;2022-09-06T13:21:05;4.20;;;1.25;;
55224;SDS011;41091;49.400;8.684;2022-09-06T13:23:46;8.43;;;1.23;;
55224;SDS011;41091;49.400;8.684;2022-09-06T13:26:12;7.50;;;1.23;;
55224;SDS011;41091;49.400;8.684;2022-09-06T13:28:38;4.22;;;0.95;;
55224;SDS011;41091;49.400;8.684;2022-09-06T13:33:37;3.75;;;1.35;;
55224;SDS011;41091;49.400;8.684;2022-09-06T13:38:38;4.10;;;1.30;;
55224;SDS011;41091;49.400;8.684;2022-09-06T13:43:59;6.90;;;1.05;;
55224;SDS011;41091;49.400;8.684;2022-09-06T13:46:41;5.97;;;2.40;;
55224;SDS011;41091;49.400;8.684;2022-09-06T13:49:06;5.75;;;1.58;;
55224;SDS011;41091;49.400;8.684;2022-09-06T13:51:34;5.03;;;1.95;;
55224;SDS011;41091;49.400;8.684;2022-09-06T13:54:05;1.65;;;1.08;;
55224;SDS011;41091;49.400;8.684;2022-09-06T13:56:32;8.10;;;1.35;;
55224;SDS011;41091;49.400;8.684;2022-09-06T13:58:58;4.57;;;1.40;;
55224;SDS011;41091;49.400;8.684;2022-09-06T14:01:23;4.85;;;0.95;;
55224;SDS011;41091;49.400;8.684;2022-09-06T14:03:49;3.75;;;0.98;;
55224;SDS011;41091;49.400;8.684;2022-09-06T14:06:15;3.58;;;0.90;;
55224;SDS011;41091;49.400;8.684;2022-09-06T14:08:40;6.63;;;0.97;;
55224;SDS011;41091;49.400;8.684;2022-09-06T14:11:06;2.08;;;0.93;;
55224;SDS011;41091;49.400;8.684;2022-09-06T14:13:34;6.22;;;0.90;;
55224;SDS011;41091;49.400;8.684;2022-09-06T14:16:00;4.82;;;0.82;;
55224;SDS011;41091;49.400;8.684;2022-09-06T14:18:25;3.00;;;1.00;;
55224;SDS011;41091;49.400;8.684;2022-09-06T14:20:51;3.25;;;1.10;;
55224;SDS011;41091;49.400;8.684;2022-09-06T14:23:18;3.55;;;1.13;;
55224;SDS011;41091;49.400;8.684;2022-09-06T14:25:46;5.03;;;1.02;;
55224;SDS011;41091;49.400;8.684;2022-09-06T14:28:12;6.32;;;1.20;;
55224;SDS011;41091;49.400;8.684;2022-09-06T14:30:42;1.95;;;1.15;;
55224;SDS011;41091;49.400;8.684;2022-09-06T14:33:07;4.28;;;1.17;;
55224;SDS011;41091;49.400;8.684;2022-09-06T14:35:34;3.67;;;1.00;;
55224;SDS011;41091;49.400;8.684;2022-09-06T14:38:00;1.40;;;1.00;;
55224;SDS011;41091;49.400;8.684;2022-09-06T14:40:25;4.50;;;1.02;;
55224;SDS011;41091;49.400;8.684;2022-09-06T14:42:53;7.07;;;1.65;;
55224;SDS011;41091;49.400;8.684;2022-09-06T14:45:19;2.60;;;0.88;;
55224;SDS011;41091;49.400;8.684;2022-09-06T14:47:45;7.28;;;1.65;;
55224;SDS011;41091;49.400;8.684;2022-09-06T14:50:10;5.32;;;1.10;;
55224;SDS011;41091;49.400;8.684;2022-09-06T14:52:36;3.25;;;1.10;;
55224;SDS011;41091;49.400;8.684;2022-09-06T14:55:01;1.50;;;1.05;;
55224;SDS011;41091;49.400;8.684;2022-09-06T14:57:27;4.55;;;1.67;;
55224;SDS011;41091;49.400;8.684;2022-09-06T14:59:55;4.13;;;1.42;;
55224;SDS011;41091;49.400;8.684;2022-09-06T15:02:23;8.38;;;1.17;;
55224;SDS011;41091;49.400;8.684;2022-09-06T15:04:52;2.78;;;1.27;;
55224;SDS011;41091;49.400;8.684;2022-09-06T15:07:19;2.78;;;1.48;;
55224;SDS011;41091;49.400;8.684;2022-09-06T15:09:45;4.88;;;0.98;;
55224;SDS011;41091;49.400;8.684;2022-09-06T15:12:15;5.32;;;1.75;;
55224;SDS011;41091;49.400;8.684;2022-09-06T15:14:41;3.90;;;1.48;;
55224;SDS011;41091;49.400;8.684;2022-09-06T15:17:07;4.13;;;0.98;;
55224;SDS011;41091;49.400;8.684;2022-09-06T15:19:33;5.85;;;0.98;;
55224;SDS011;41091;49.400;8.684;2022-09-06T15:22:00;3.17;;;1.08;;
55224;SDS011;41091;49.400;8.684;2022-09-06T15:24:26;3.97;;;1.17;;
55224;SDS011;41091;49.400;8.684;2022-09-06T15:26:52;4.78;;;1.25;;
55224;SDS011;41091;49.400;8.684;2022-09-06T15:29:17;2.78;;;1.10;;
55224;SDS011;41091;49.400;8.684;2022-09-06T15:31:46;5.82;;;1.33;;
55224;SDS011;41091;49.400;8.684;2022-09-06T15:34:14;7.78;;;1.23;;
55224;SDS011;41091;49.400;8.684;2022-09-06T15:36:40;2.60;;;1.40;;
55224;SDS011;41091;49.400;8.684;2022-09-06T15:39:08;7.03;;;1.40;;
55224;SDS011;41091;49.400;8.684;2022-09-06T15:41:35;5.25;;;1.42;;
55224;SDS011;41091;49.400;8.684;2022-09-06T15:44:10;8.98;;;1.48;;
55224;SDS011;41091;49.400;8.684;2022-09-06T15:49:11;4.18;;;1.27;;
55224;SDS011;41091;49.400;8.684;2022-09-06T15:51:42;3.38;;;0.63;;
55224;SDS011;41091;49.400;8.684;2022-09-06T15:54:08;4.43;;;1.20;;
55224;SDS011;41091;49.400;8.684;2022-09-06T15:56:36;6.20;;;1.73;;
55224;SDS011;41091;49.400;8.684;2022-09-06T15:59:02;4.75;;;0.82;;
55224;SDS011;41091;49.400;8.684;2022-09-06T16:01:27;2.63;;;1.00;;
55224;SDS011;41091;49.400;8.684;2022-09-06T16:03:54;7.95;;;1.45;;
55224;SDS011;41091;49.400;8.684;2022-09-06T16:06:27;4.20;;;1.20;;
55224;SDS011;41091;49.400;8.684;2022-09-06T16:08:55;6.43;;;1.15;;
55224;SDS011;41091;49.400;8.684;2022-09-06T16:11:22;3.60;;;1.45;;
55224;SDS011;41091;49.400;8.684;2022-09-06T16:13:48;9.55;;;1.27;;
55224;SDS011;41091;49.400;8.684;2022-09-06T16:16:16;2.78;;;1.40;;
55224;SDS011;41091;49.400;8.684;2022-09-06T16:18:45;5.57;;;1.42;;
55224;SDS011;41091;49.400;8.684;2022-09-06T16:21:14;6.43;;;1.70;;
55224;SDS011;41091;49.400;8.684;2022-09-06T16:23:46;7.15;;;1.73;;
55224;SDS011;41091;49.400;8.684;2022-09-06T16:26:15;11.20;;;1.88;;
55224;SDS011;41091;49.400;8.684;2022-09-06T16:28:41;4.28;;;1.25;;
55224;SDS011;41091;49.400;8.684;2022-09-06T16:31:07;4.72;;;1.45;;
55224;SDS011;41091;49.400;8.684;2022-09-06T16:33:36;6.10;;;1.38;;
55224;SDS011;41091;49.400;8.684;2022-09-06T16:36:04;3.60;;;1.40;;
55224;SDS011;41091;49.400;8.684;2022-09-06T16:38:33;7.75;;;1.60;;
55224;SDS011;41091;49.400;8.684;2022-09-06T16:41:00;11.75;;;1.52;;
55224;SDS011;41091;49.400;8.684;2022-09-06T16:43:31;3.78;;;1.45;;
55224;SDS011;41091;49.400;8.684;2022-09-06T16:45:58;3.75;;;1.35;;
55224;SDS011;41091;49.400;8.684;2022-09-06T16:48:28;7.10;;;1.52;;
55224;SDS011;41091;49.400;8.684;2022-09-06T16:50:54;4.15;;;1.10;;
55224;SDS011;41091;49.400;8.684;2022-09-06T16:53:19;7.90;;;1.45;;
55224;SDS011;41091;49.400;8.684;2022-09-06T16:55:48;7.13;;;1.20;;
55224;SDS011;41091;49.400;8.684;2022-09-06T16:58:14;5.18;;;1.90;;
55224;SDS011;41091;49.400;8.684;2022-09-06T17:00:43;6.05;;;1.40;;
55224;SDS011;41091;49.400;8.684;2022-09-06T17:03:09;3.55;;;1.10;;
55224;SDS011;41091;49.400;8.684;2022-09-06T17:05:39;8.43;;;1.80;;
55224;SDS011;41091;49.400;8.684;2022-09-06T17:08:05;4.93;;;1.20;;
55224;SDS011;41091;49.400;8.684;2022-09-06T17:10:30;6.38;;;1.23;;
55224;SDS011;41091;49.400;8.684;2022-09-06T17:12:55;5.00;;;1.02;;
55224;SDS011;41091;49.400;8.684;2022-09-06T17:15:24;4.78;;;1.65;;
55224;SDS011;41091;49.400;8.684;2022-09-06T17:17:49;8.38;;;1.30;;
55224;SDS011;41091;49.400;8.684;2022-09-06T17:20:14;7.32;;;1.60;;
55224;SDS011;41091;49.400;8.684;2022-09-06T17:22:42;5.05;;;1.55;;
55224;SDS011;41091;49.400;8.684;2022-09-06T17:25:10;5.80;;;1.48;;